Time;durP1;ratioP1;P1;durP2;ratioP2;P2;SDS_P1;SDS_P2;PMS_P1;PMS_P2;Temp;Humidity;BMP_temperature;BMP_pressure;BME280_temperature;BME280_humidity;BME280_pressure;Samples;Min_cycle;Max_cycle;Signal;HPM_P1;HPM_P2
2021/11/19 00:02:00;;;;;;;29.30;16.27;;;11.00;99.90;;;;;;5041692;28;20026;-87
2021/11/19 00:04:31;;;;;;;26.88;16.70;;;11.00;99.90;;;;;;5040121;28;20029;-88
2021/11/19 00:06:59;;;;;;;24.13;16.58;;;11.00;99.90;;;;;;5033102;28;20049;-88
2021/11/19 00:09:25;;;;;;;28.77;17.15;;;11.00;99.90;;;;;;5045703;28;20072;-87
2021/11/19 00:11:51;;;;;;;34.53;19.40;;;11.00;99.90;;;;;;5035507;28;20124;-86
2021/11/19 00:14:20;;;;;;;33.65;18.00;;;11.10;99.90;;;;;;5037592;28;20034;-86
2021/11/19 00:16:49;;;;;;;25.67;15.85;;;11.00;99.90;;;;;;5042720;28;20045;-87
2021/11/19 00:19:16;;;;;;;29.50;17.33;;;11.00;99.90;;;;;;5045493;28;20116;-87
2021/11/19 00:21:44;;;;;;;23.75;16.27;;;11.10;99.90;;;;;;5034124;28;20663;-85
2021/11/19 00:24:11;;;;;;;28.85;17.13;;;11.10;99.90;;;;;;5024200;28;20068;-86
2021/11/19 00:26:39;;;;;;;29.50;16.02;;;11.10;99.90;;;;;;5034895;28;20029;-87
2021/11/19 00:29:08;;;;;;;30.58;18.17;;;11.10;99.90;;;;;;5044133;28;20028;-87
2021/11/19 00:31:34;;;;;;;30.38;18.38;;;11.10;99.90;;;;;;5032847;28;20052;-84
2021/11/19 00:34:01;;;;;;;28.10;18.05;;;11.10;99.90;;;;;;5040568;28;20067;-86
2021/11/19 00:36:32;;;;;;;31.50;19.00;;;11.10;99.90;;;;;;5057121;28;20456;-87
2021/11/19 00:39:04;;;;;;;29.20;18.27;;;11.10;99.90;;;;;;5048893;28;20036;-86
2021/11/19 00:41:34;;;;;;;28.45;16.50;;;11.10;99.90;;;;;;5023720;28;20053;-83
2021/11/19 00:44:01;;;;;;;28.02;17.27;;;11.10;99.90;;;;;;5037302;28;20033;-86
2021/11/19 00:46:27;;;;;;;30.42;17.98;;;11.10;99.90;;;;;;5036160;28;20116;-85
2021/11/19 00:48:54;;;;;;;28.67;18.05;;;11.10;99.90;;;;;;5028217;28;20047;-86
2021/11/19 00:51:28;;;;;;;33.28;18.95;;;11.10;99.90;;;;;;5030003;28;20037;-86
2021/11/19 00:53:56;;;;;;;28.63;18.38;;;11.10;99.90;;;;;;5039207;28;20123;-86
2021/11/19 00:56:27;;;;;;;29.75;19.73;;;11.10;99.90;;;;;;5036542;28;20685;-87
2021/11/19 00:58:54;;;;;;;35.55;18.90;;;11.10;99.90;;;;;;5043208;28;20021;-86
2021/11/19 01:01:32;;;;;;;32.20;19.30;;;11.10;99.90;;;;;;5032668;28;20057;-87
2021/11/19 01:04:00;;;;;;;27.70;17.30;;;11.10;99.90;;;;;;5048936;28;20698;-87
2021/11/19 01:06:28;;;;;;;27.98;17.20;;;11.10;99.90;;;;;;5039065;28;20033;-87
2021/11/19 01:08:56;;;;;;;26.67;17.77;;;11.10;99.90;;;;;;5046388;28;20094;-87
2021/11/19 01:11:25;;;;;;;31.45;18.25;;;11.10;99.90;;;;;;5018045;28;20119;-86
2021/11/19 01:13:55;;;;;;;29.85;18.55;;;11.10;99.90;;;;;;5043382;28;20030;-86
2021/11/19 01:16:35;;;;;;;32.95;18.92;;;11.10;99.90;;;;;;5042251;28;20036;-88
2021/11/19 01:19:18;;;;;;;23.30;15.40;;;11.20;99.90;;;;;;5050784;28;20049;-86
2021/11/19 01:22:06;;;;;;;29.60;18.25;;;11.20;99.90;;;;;;5036916;28;20453;-87
2021/11/19 01:24:33;;;;;;;28.48;18.25;;;11.20;99.90;;;;;;5052731;28;20035;-86
2021/11/19 01:26:59;;;;;;;31.50;19.48;;;11.20;99.90;;;;;;5035310;28;20035;-86
2021/11/19 01:29:26;;;;;;;30.25;17.95;;;11.20;99.90;;;;;;5035277;28;20487;-85
2021/11/19 01:32:02;;;;;;;27.20;17.17;;;11.20;99.90;;;;;;5051160;28;20033;-86
2021/11/19 01:34:29;;;;;;;28.27;19.77;;;11.20;99.90;;;;;;5038577;28;20034;-87
2021/11/19 01:36:56;;;;;;;30.58;19.33;;;11.20;99.90;;;;;;5046548;28;20055;-86
2021/11/19 01:39:26;;;;;;;28.00;19.52;;;11.20;99.90;;;;;;5052716;28;20083;-87
2021/11/19 01:42:05;;;;;;;31.45;21.67;;;11.30;99.90;;;;;;5044258;28;20025;-86
2021/11/19 01:44:33;;;;;;;27.65;18.05;;;11.30;99.90;;;;;;5031335;28;20036;-85
2021/11/19 01:47:03;;;;;;;30.15;20.52;;;11.30;99.90;;;;;;5031811;28;20033;-86
2021/11/19 01:49:32;;;;;;;29.83;19.40;;;11.30;99.90;;;;;;5035652;28;20052;-87
2021/11/19 01:52:06;;;;;;;38.65;22.05;;;11.30;99.90;;;;;;5044202;28;20022;-85
2021/11/19 01:54:34;;;;;;;32.70;21.58;;;11.30;99.90;;;;;;5028385;28;20125;-87
2021/11/19 01:57:13;;;;;;;39.95;24.02;;;11.30;99.90;;;;;;5011299;28;20037;-86
2021/11/19 01:59:52;;;;;;;36.47;22.98;;;11.30;99.90;;;;;;5022020;28;20029;-86
2021/11/19 02:02:25;;;;;;;32.92;22.15;;;11.30;99.90;;;;;;5051572;28;20499;-85
2021/11/19 02:05:09;;;;;;;36.53;24.63;;;11.30;99.90;;;;;;5050561;28;20037;-86
2021/11/19 02:07:44;;;;;;;43.28;24.02;;;11.30;99.90;;;;;;5036577;28;20040;-85
2021/11/19 02:10:28;;;;;;;35.78;22.42;;;11.30;99.90;;;;;;5041164;28;20033;-86
2021/11/19 02:13:12;;;;;;;36.92;23.48;;;11.30;99.90;;;;;;5030102;28;20075;-85
2021/11/19 02:15:54;;;;;;;32.97;22.80;;;11.30;99.90;;;;;;5035920;28;20045;-87
2021/11/19 02:18:44;;;;;;;38.72;26.13;;;11.30;99.90;;;;;;5048881;28;20139;-87
2021/11/19 02:21:22;;;;;;;39.13;25.98;;;11.30;99.90;;;;;;5045852;28;20041;-86
2021/11/19 02:23:57;;;;;;;40.05;25.00;;;11.30;99.90;;;;;;5036947;28;20163;-87
2021/11/19 02:26:30;;;;;;;39.88;25.60;;;11.30;99.90;;;;;;5031065;28;20481;-86
2021/11/19 02:28:56;;;;;;;36.60;24.27;;;11.30;99.90;;;;;;5045217;28;20029;-86
2021/11/19 02:31:33;;;;;;;42.50;26.13;;;11.20;99.90;;;;;;5032245;28;20036;-86
2021/11/19 02:34:03;;;;;;;38.03;24.23;;;11.30;99.90;;;;;;5040608;28;20207;-87
2021/11/19 02:36:46;;;;;;;38.53;25.00;;;11.30;99.90;;;;;;5040114;28;20119;-86
2021/11/19 02:39:17;;;;;;;39.55;27.02;;;11.30;99.90;;;;;;5031080;28;20095;-86
2021/11/19 02:41:50;;;;;;;36.28;24.35;;;11.30;99.90;;;;;;5044221;28;20027;-87
2021/11/19 02:44:21;;;;;;;38.22;25.48;;;11.30;99.90;;;;;;5039604;28;20476;-88
2021/11/19 02:46:54;;;;;;;38.92;24.92;;;11.30;99.90;;;;;;5034335;28;20492;-87
2021/11/19 02:49:20;;;;;;;;;;;11.30;99.90;;;;;;5045760;28;20025;-86
2021/11/19 02:51:47;;;;;;;42.28;27.02;;;11.20;99.90;;;;;;5028403;28;19912;-85
2021/11/19 02:54:17;;;;;;;42.60;27.45;;;11.30;99.90;;;;;;5038592;28;20037;-86
2021/11/19 02:56:44;;;;;;;37.15;25.52;;;11.30;99.90;;;;;;5034726;28;20357;-86
2021/11/19 02:59:11;;;;;;;44.65;28.08;;;11.30;99.90;;;;;;5030517;28;20029;-87
2021/11/19 03:02:07;;;;;;;36.08;24.95;;;11.30;99.90;;;;;;5044591;28;20079;-86
2021/11/19 03:04:43;;;;;;;37.25;26.90;;;11.30;99.90;;;;;;5030110;28;20036;-86
2021/11/19 03:07:11;;;;;;;39.80;26.13;;;11.30;99.90;;;;;;5031072;28;20139;-87
2021/11/19 03:09:42;;;;;;;36.50;25.08;;;11.30;99.90;;;;;;5028175;28;20061;-86
2021/11/19 03:12:10;;;;;;;38.75;26.70;;;11.30;99.90;;;;;;5029731;28;20035;-87
2021/11/19 03:14:38;;;;;;;39.38;26.73;;;11.30;99.90;;;;;;5044146;28;20621;-86
2021/11/19 03:17:06;;;;;;;37.40;27.17;;;11.30;99.90;;;;;;5048247;28;20120;-87
2021/11/19 03:19:32;;;;;;;46.17;30.52;;;11.30;99.90;;;;;;5034695;28;20633;-86
2021/11/19 03:21:58;;;;;;;41.30;29.40;;;11.30;99.90;;;;;;5041873;28;20036;-87
2021/11/19 03:24:26;;;;;;;41.08;27.23;;;11.30;99.90;;;;;;5049153;28;20094;-86
2021/11/19 03:26:53;;;;;;;39.60;27.63;;;11.30;99.90;;;;;;5033420;28;20032;-86
2021/11/19 03:29:21;;;;;;;41.13;29.00;;;11.30;99.90;;;;;;5045482;28;20064;-86
2021/11/19 03:31:48;;;;;;;42.25;30.52;;;11.30;99.90;;;;;;5029894;28;20022;-86
2021/11/19 03:34:23;;;;;;;49.65;33.50;;;11.30;99.90;;;;;;5032767;28;20029;-86
2021/11/19 03:36:53;;;;;;;50.00;34.70;;;11.30;99.90;;;;;;5032072;28;20148;-86
2021/11/19 03:39:22;;;;;;;45.05;31.80;;;11.30;99.90;;;;;;5032949;28;20029;-86
2021/11/19 03:41:50;;;;;;;48.75;31.85;;;11.30;99.90;;;;;;5032451;28;20080;-87
2021/11/19 03:44:28;;;;;;;47.40;30.88;;;11.30;99.90;;;;;;5032336;28;20491;-87
2021/11/19 03:47:08;;;;;;;53.30;35.85;;;11.30;99.90;;;;;;5030430;28;20018;-87
2021/11/19 03:49:38;;;;;;;56.80;35.78;;;11.30;99.90;;;;;;5048597;28;20025;-87
2021/11/19 03:52:28;;;;;;;48.50;34.65;;;11.30;99.90;;;;;;5031892;28;20026;-87
2021/11/19 03:54:58;;;;;;;54.72;35.55;;;11.30;99.90;;;;;;5016409;28;20057;-86
2021/11/19 03:57:25;;;;;;;48.55;34.60;;;11.30;99.90;;;;;;5021610;28;20045;-87
2021/11/19 03:59:52;;;;;;;50.55;34.45;;;11.30;99.90;;;;;;5032302;28;20022;-86
2021/11/19 04:02:21;;;;;;;55.00;35.88;;;11.30;99.90;;;;;;5031624;28;20064;-87
2021/11/19 04:04:47;;;;;;;50.40;33.83;;;11.30;99.90;;;;;;5020850;28;20119;-86
2021/11/19 04:07:15;;;;;;;48.97;34.97;;;11.30;99.90;;;;;;5013797;28;20074;-86
2021/11/19 04:09:44;;;;;;;49.05;31.73;;;11.30;99.90;;;;;;5012666;28;20022;-86
2021/11/19 04:12:15;;;;;;;41.55;29.70;;;11.30;99.90;;;;;;5012523;28;20029;-86
2021/11/19 04:14:41;;;;;;;56.58;36.75;;;11.30;99.90;;;;;;5012801;28;20108;-87
2021/11/19 04:17:08;;;;;;;44.67;31.23;;;11.30;99.90;;;;;;5012781;28;20030;-87
2021/11/19 04:19:35;;;;;;;49.40;33.47;;;11.30;99.90;;;;;;5012583;28;20050;-87
2021/11/19 04:22:08;;;;;;;50.47;34.45;;;11.30;99.90;;;;;;5013041;28;20021;-86
2021/11/19 04:24:39;;;;;;;54.28;35.65;;;11.30;99.90;;;;;;5012817;28;20381;-86
2021/11/19 04:27:06;;;;;;;50.47;34.25;;;11.30;99.90;;;;;;5012745;28;20032;-87
2021/11/19 04:29:32;;;;;;;54.45;34.55;;;11.30;99.90;;;;;;5012831;28;20045;-86
2021/11/19 04:31:58;;;;;;;47.53;33.17;;;11.30;99.90;;;;;;5012648;28;20429;-87
2021/11/19 04:34:25;;;;;;;48.13;32.83;;;11.30;99.90;;;;;;5013965;28;20494;-87
2021/11/19 04:36:51;;;;;;;55.50;34.78;;;11.30;99.90;;;;;;5012480;28;20053;-86
2021/11/19 04:39:18;;;;;;;51.92;34.55;;;11.30;99.90;;;;;;5015789;28;20022;-87
2021/11/19 04:41:44;;;;;;;53.30;34.70;;;11.30;99.90;;;;;;5016571;28;20030;-86
2021/11/19 04:44:11;;;;;;;51.88;34.28;;;11.30;99.90;;;;;;5017690;28;20377;-87
2021/11/19 04:46:37;;;;;;;48.13;32.33;;;11.30;99.90;;;;;;5015997;28;20026;-86
2021/11/19 04:49:04;;;;;;;54.58;36.10;;;11.30;99.90;;;;;;5017073;28;20041;-86
2021/11/19 04:51:33;;;;;;;58.03;37.47;;;11.30;99.90;;;;;;5016264;28;20065;-85
2021/11/19 04:53:59;;;;;;;52.55;34.72;;;11.30;99.90;;;;;;5016057;28;20117;-86
2021/11/19 04:56:26;;;;;;;55.22;36.30;;;11.30;99.90;;;;;;5049054;28;20029;-86
2021/11/19 04:58:52;;;;;;;57.15;38.08;;;11.30;99.90;;;;;;5015970;28;20022;-86
2021/11/19 05:01:26;;;;;;;51.80;34.75;;;11.30;99.90;;;;;;5016003;28;20480;-86
2021/11/19 05:03:53;;;;;;;48.25;34.22;;;11.30;99.90;;;;;;5016736;28;20433;-86
2021/11/19 05:06:20;;;;;;;50.45;34.20;;;11.30;99.90;;;;;;5017519;28;20109;-86
2021/11/19 05:08:46;;;;;;;53.88;35.10;;;11.30;99.90;;;;;;5017317;28;20487;-87
2021/11/19 05:11:17;;;;;;;53.40;34.35;;;11.30;99.90;;;;;;5017398;28;20030;-87
2021/11/19 05:13:44;;;;;;;51.22;34.25;;;11.30;99.90;;;;;;5016042;28;20037;-86
2021/11/19 05:16:12;;;;;;;49.08;32.58;;;11.30;99.90;;;;;;5048763;28;20112;-85
2021/11/19 05:18:41;;;;;;;51.85;33.08;;;11.30;99.90;;;;;;5015252;28;20111;-86
2021/11/19 05:21:09;;;;;;;52.22;35.65;;;11.30;99.90;;;;;;5015621;28;20036;-87
2021/11/19 05:23:35;;;;;;;53.40;34.88;;;11.30;99.90;;;;;;5015576;28;20026;-87
2021/11/19 05:26:01;;;;;;;52.05;33.70;;;11.30;99.90;;;;;;5015952;28;20025;-86
2021/11/19 05:28:28;;;;;;;52.97;35.03;;;11.30;99.90;;;;;;5015735;28;20053;-86
2021/11/19 05:30:56;;;;;;;53.65;35.28;;;11.20;99.90;;;;;;5015434;28;20022;-86
2021/11/19 05:33:25;;;;;;;55.70;36.05;;;11.30;99.90;;;;;;5048233;28;20038;-86
2021/11/19 05:35:52;;;;;;;49.00;33.70;;;11.20;99.90;;;;;;5015438;28;20168;-87
2021/11/19 05:38:20;;;;;;;47.72;33.13;;;11.20;99.90;;;;;;5014963;28;20046;-86
2021/11/19 05:40:46;;;;;;;47.38;33.33;;;11.20;99.90;;;;;;5048450;28;20080;-87
2021/11/19 05:43:13;;;;;;;48.88;33.55;;;11.20;99.90;;;;;;5015600;28;20053;-87
2021/11/19 05:45:39;;;;;;;46.85;32.58;;;11.20;99.90;;;;;;5015271;28;20030;-87
2021/11/19 05:48:07;;;;;;;47.63;32.15;;;11.20;99.90;;;;;;5015236;28;20422;-87
2021/11/19 05:50:37;;;;;;;44.78;31.42;;;11.20;99.90;;;;;;5014236;28;20488;-87
2021/11/19 05:53:04;;;;;;;45.85;31.17;;;11.20;99.90;;;;;;5016478;28;20033;-87
2021/11/19 05:55:34;;;;;;;53.00;35.28;;;11.20;99.90;;;;;;5015299;28;20036;-87
2021/11/19 05:58:01;;;;;;;53.58;34.53;;;11.20;99.90;;;;;;5014969;28;20036;-87
2021/11/19 06:00:33;;;;;;;53.47;34.50;;;11.20;99.90;;;;;;5015839;28;20378;-88
2021/11/19 06:02:59;;;;;;;48.30;32.50;;;11.20;99.90;;;;;;5015987;28;20024;-87
2021/11/19 06:05:26;;;;;;;48.33;32.38;;;11.20;99.90;;;;;;5016092;28;20057;-88
2021/11/19 06:07:52;;;;;;;51.15;33.72;;;11.20;99.90;;;;;;5014789;28;20125;-88
2021/11/19 06:10:24;;;;;;;49.83;33.50;;;11.20;99.90;;;;;;5016206;28;20113;-87
2021/11/19 06:12:54;;;;;;;50.22;32.83;;;11.20;99.90;;;;;;5014840;28;20030;-87
2021/11/19 06:15:34;;;;;;;49.80;32.65;;;11.20;99.90;;;;;;5031036;28;20501;-88
2021/11/19 06:18:06;;;;;;;49.80;31.92;;;11.20;99.90;;;;;;5015905;28;20026;-87
2021/11/19 06:20:43;;;;;;;51.55;32.55;;;11.20;99.90;;;;;;5014699;28;20034;-87
2021/11/19 06:23:13;;;;;;;44.53;30.75;;;11.30;99.90;;;;;;5014601;28;20030;-87
2021/11/19 06:25:42;;;;;;;43.05;30.25;;;11.30;99.90;;;;;;5014662;28;20223;-87
2021/11/19 06:28:12;;;;;;;57.58;34.92;;;11.30;99.90;;;;;;5047585;28;20115;-87
2021/11/19 06:30:38;;;;;;;48.22;31.50;;;11.30;99.90;;;;;;5014381;28;20017;-87
2021/11/19 06:33:05;;;;;;;53.85;35.03;;;11.30;99.90;;;;;;5015450;28;20036;-87
2021/11/19 06:35:32;;;;;;;53.05;35.83;;;11.30;99.90;;;;;;5014383;28;20052;-87
2021/11/19 06:37:59;;;;;;;48.55;32.08;;;11.30;99.90;;;;;;5015288;28;20053;-88
2021/11/19 06:40:36;;;;;;;52.65;32.85;;;11.40;99.90;;;;;;5015397;28;20108;-88
2021/11/19 06:43:05;;;;;;;48.72;32.97;;;11.40;99.90;;;;;;5016116;28;20044;-87
2021/11/19 06:45:31;;;;;;;55.25;35.15;;;11.40;99.90;;;;;;5015372;28;20033;-89
2021/11/19 06:48:02;;;;;;;52.78;34.63;;;11.40;99.90;;;;;;5016747;28;20018;-87
2021/11/19 06:50:35;;;;;;;50.28;33.45;;;11.40;99.90;;;;;;5017622;28;20034;-87
2021/11/19 06:53:02;;;;;;;46.90;32.08;;;11.40;99.90;;;;;;5015554;28;20081;-89
2021/11/19 06:55:33;;;;;;;47.35;32.30;;;11.40;99.90;;;;;;5014087;28;20038;-88
2021/11/19 06:57:59;;;;;;;54.50;34.55;;;11.40;99.90;;;;;;5029972;28;20519;-87
2021/11/19 07:00:32;;;;;;;50.08;32.60;;;11.40;99.90;;;;;;5014231;28;20386;-88
2021/11/19 07:03:00;;;;;;;60.00;35.38;;;11.40;99.90;;;;;;5013753;28;20045;-88
2021/11/19 07:05:26;;;;;;;50.28;32.75;;;11.40;99.90;;;;;;5030069;28;20030;-88
2021/11/19 07:07:53;;;;;;;47.53;31.88;;;11.50;99.90;;;;;;5015307;28;20410;-88
2021/11/19 07:10:24;;;;;;;45.47;29.42;;;11.50;99.90;;;;;;5014008;28;20045;-89
2021/11/19 07:12:50;;;;;;;45.25;32.22;;;11.50;99.90;;;;;;5013626;28;20043;-88
2021/11/19 07:15:17;;;;;;;52.20;33.72;;;11.50;99.90;;;;;;5047125;28;20083;-87
2021/11/19 07:17:46;;;;;;;50.85;33.97;;;11.50;99.90;;;;;;5014603;28;20026;-87
2021/11/19 07:20:15;;;;;;;50.05;33.30;;;11.50;99.90;;;;;;5013869;28;20045;-87
2021/11/19 07:22:42;;;;;;;51.35;34.67;;;11.60;99.90;;;;;;5013535;28;20040;-88
2021/11/19 07:25:15;;;;;;;54.42;35.50;;;11.50;99.90;;;;;;5014890;28;20072;-86
2021/11/19 07:27:42;;;;;;;50.75;35.00;;;11.60;99.90;;;;;;5015484;28;20049;-87
2021/11/19 07:30:12;;;;;;;53.63;34.97;;;11.60;99.90;;;;;;5013425;28;20056;-87
2021/11/19 07:32:38;;;;;;;49.00;32.47;;;11.60;99.90;;;;;;5013376;28;20026;-87
2021/11/19 07:35:06;;;;;;;53.90;35.92;;;11.60;99.90;;;;;;5014701;28;20033;-87
2021/11/19 07:37:33;;;;;;;48.60;32.53;;;11.60;99.90;;;;;;5012531;28;20029;-87
2021/11/19 07:40:00;;;;;;;47.38;32.38;;;11.60;99.90;;;;;;5011931;28;20173;-87
2021/11/19 07:42:27;;;;;;;45.45;31.52;;;11.60;99.90;;;;;;5011039;28;20478;-87
2021/11/19 07:44:53;;;;;;;50.80;32.72;;;11.60;99.90;;;;;;5011523;28;20399;-87
2021/11/19 07:47:19;;;;;;;58.35;33.20;;;11.60;99.90;;;;;;5013350;28;20033;-86
2021/11/19 07:49:45;;;;;;;44.63;30.35;;;11.70;99.90;;;;;;5013629;28;20022;-88
2021/11/19 07:52:12;;;;;;;43.95;30.85;;;11.70;99.90;;;;;;5028817;28;20025;-86
2021/11/19 07:54:40;;;;;;;44.72;31.27;;;11.60;99.90;;;;;;5049963;28;20037;-86
2021/11/19 07:57:06;;;;;;;43.70;29.58;;;11.70;99.90;;;;;;5051132;28;20033;-87
2021/11/19 07:59:33;;;;;;;43.20;30.67;;;11.70;99.90;;;;;;5033647;28;20026;-87
2021/11/19 08:02:02;;;;;;;43.35;30.10;;;11.70;99.90;;;;;;5032530;28;20024;-86
2021/11/19 08:04:33;;;;;;;42.47;30.20;;;11.80;99.90;;;;;;5033345;28;20017;-87
2021/11/19 08:07:04;;;;;;;41.08;29.83;;;11.80;99.90;;;;;;5034439;28;20040;-85
2021/11/19 08:09:32;;;;;;;43.15;29.92;;;11.80;99.90;;;;;;5033885;28;20044;-88
2021/11/19 08:12:01;;;;;;;42.20;30.05;;;11.80;99.90;;;;;;5035469;28;20041;-89
2021/11/19 08:14:28;;;;;;;41.80;28.90;;;11.80;99.90;;;;;;5035791;28;20037;-89
2021/11/19 08:17:21;;;;;;;40.75;27.85;;;11.80;99.90;;;;;;5040117;28;20026;-89
2021/11/19 08:19:50;;;;;;;37.30;26.88;;;11.80;99.90;;;;;;5039372;28;20048;-88
2021/11/19 08:22:22;;;;;;;41.78;28.63;;;11.80;99.90;;;;;;5039540;28;20029;-88
2021/11/19 08:24:52;;;;;;;40.08;28.50;;;11.90;99.90;;;;;;5039747;28;20473;-87
2021/11/19 08:27:22;;;;;;;41.10;27.60;;;11.90;99.90;;;;;;5039125;28;20474;-88
2021/11/19 08:29:53;;;;;;;38.80;27.10;;;11.90;99.90;;;;;;5039653;28;20052;-89
2021/11/19 08:32:21;;;;;;;41.15;27.02;;;11.90;99.90;;;;;;5055413;28;20052;-88
2021/11/19 08:34:48;;;;;;;38.85;27.70;;;12.00;99.90;;;;;;5040585;28;20041;-88
2021/11/19 08:37:16;;;;;;;42.95;27.08;;;11.90;99.90;;;;;;5038938;28;20037;-88
2021/11/19 08:39:50;;;;;;;42.83;29.02;;;11.90;99.90;;;;;;5038027;28;20053;-89
2021/11/19 08:42:19;;;;;;;40.75;27.65;;;12.00;99.90;;;;;;5037746;28;20029;-89
2021/11/19 08:44:46;;;;;;;40.35;28.35;;;12.00;99.90;;;;;;5039323;28;20027;-88
2021/11/19 08:47:14;;;;;;;42.85;29.52;;;12.00;99.90;;;;;;5039031;28;20068;-88
2021/11/19 08:49:42;;;;;;;38.90;28.38;;;12.00;99.90;;;;;;5038491;28;20021;-88
2021/11/19 08:52:12;;;;;;;40.38;27.27;;;12.00;99.90;;;;;;5037936;28;20541;-89
2021/11/19 08:54:39;;;;;;;39.78;28.75;;;12.00;99.90;;;;;;5038518;28;20038;-88
2021/11/19 08:57:10;;;;;;;37.05;26.73;;;12.00;99.90;;;;;;5039817;28;20519;-88
2021/11/19 08:59:38;;;;;;;42.15;26.77;;;12.00;99.90;;;;;;5037275;28;20022;-88
2021/11/19 09:02:12;;;;;;;42.83;30.75;;;12.10;99.90;;;;;;5038868;28;20330;-89
2021/11/19 09:04:39;;;;;;;39.22;28.42;;;12.10;99.90;;;;;;5055028;28;20052;-88
2021/11/19 09:07:06;;;;;;;38.58;28.23;;;12.10;99.90;;;;;;5039141;28;20025;-89
2021/11/19 09:09:33;;;;;;;34.70;26.08;;;12.10;99.90;;;;;;5022242;28;20030;-89
2021/11/19 09:12:00;;;;;;;40.60;27.13;;;12.10;99.90;;;;;;5038959;28;20025;-88
2021/11/19 09:14:26;;;;;;;36.45;26.45;;;12.10;99.90;;;;;;5055696;28;20061;-88
2021/11/19 09:17:22;;;;;;;38.45;28.63;;;12.20;99.90;;;;;;5039830;28;20033;-87
2021/11/19 09:20:03;;;;;;;39.78;28.23;;;12.20;99.90;;;;;;5037276;28;20029;-88
2021/11/19 09:22:48;;;;;;;34.35;26.08;;;12.20;99.90;;;;;;5036241;28;20037;-88
2021/11/19 09:25:17;;;;;;;35.72;27.05;;;12.30;99.90;;;;;;5034861;28;20025;-87
2021/11/19 09:27:44;;;;;;;36.22;26.63;;;12.30;99.90;;;;;;5035427;28;20036;-88
2021/11/19 09:30:16;;;;;;;30.67;23.48;;;12.30;99.90;;;;;;5034722;28;20033;-87
2021/11/19 09:32:46;;;;;;;39.65;26.88;;;12.40;99.90;;;;;;5034055;28;20038;-88
2021/11/19 09:35:13;;;;;;;35.95;25.70;;;12.40;99.90;;;;;;5035063;28;20392;-88
2021/11/19 09:37:40;;;;;;;32.63;24.13;;;12.40;99.90;;;;;;5036220;28;20025;-88
2021/11/19 09:40:08;;;;;;;32.63;23.60;;;12.50;99.90;;;;;;5035974;28;20029;-88
2021/11/19 09:42:56;;;;;;;30.83;22.90;;;12.50;99.90;;;;;;5036131;28;20089;-88
2021/11/19 09:45:34;;;;;;;30.35;23.55;;;12.60;99.90;;;;;;5034815;28;20103;-88
2021/11/19 09:48:27;;;;;;;32.53;23.13;;;12.60;99.90;;;;;;5036467;28;20030;-87
2021/11/19 09:51:24;;;;;;;27.88;21.50;;;12.60;99.90;;;;;;5053711;28;20040;-87
2021/11/19 09:54:20;;;;;;;29.80;22.20;;;12.70;99.90;;;;;;5052222;28;20397;-88
2021/11/19 09:56:52;;;;;;;26.90;20.23;;;12.70;99.90;;;;;;5052012;28;20084;-88
2021/11/19 09:59:43;;;;;;;26.23;20.70;;;12.80;99.90;;;;;;5035507;28;20056;-86
2021/11/19 10:02:30;;;;;;;31.13;21.85;;;12.90;99.90;;;;;;5035432;28;20053;-88
2021/11/19 10:05:22;;;;;;;29.52;21.92;;;13.00;99.90;;;;;;5053516;28;20044;-88
2021/11/19 10:08:10;;;;;;;25.80;20.35;;;13.00;99.90;;;;;;5052232;28;20040;-87
2021/11/19 10:10:55;;;;;;;26.65;20.38;;;13.10;99.90;;;;;;5042160;28;20052;-85
2021/11/19 10:13:55;;;;;;;28.17;19.85;;;13.10;99.90;;;;;;5035363;28;20378;-87
2021/11/19 10:16:42;;;;;;;25.38;19.35;;;13.20;99.90;;;;;;5028551;28;20077;-87
2021/11/19 10:19:32;;;;;;;27.33;18.67;;;13.30;99.90;;;;;;5036163;28;20028;-87
2021/11/19 10:22:21;;;;;;;23.67;19.27;;;13.40;99.90;;;;;;5034331;28;20018;-87
2021/11/19 10:25:08;;;;;;;25.83;17.70;;;13.40;99.90;;;;;;5035008;28;20045;-85
2021/11/19 10:27:44;;;;;;;23.80;16.63;;;13.40;99.90;;;;;;5022129;28;20021;-86
2021/11/19 10:30:40;;;;;;;23.20;17.63;;;13.40;99.90;;;;;;5045521;28;20461;-86
2021/11/19 10:33:22;;;;;;;20.20;16.83;;;13.40;99.90;;;;;;5033615;28;20025;-86
2021/11/19 10:36:26;;;;;;;16.67;14.52;;;13.50;99.90;;;;;;5033460;28;20049;-86
2021/11/19 10:39:27;;;;;;;18.13;15.40;;;13.60;99.90;;;;;;5036414;28;20061;-86
2021/11/19 10:42:08;;;;;;;22.52;16.90;;;13.60;99.90;;;;;;5028375;28;20041;-86
2021/11/19 10:44:56;;;;;;;17.80;14.25;;;13.60;99.90;;;;;;5035096;28;20100;-86
2021/11/19 10:47:41;;;;;;;20.15;15.40;;;13.70;99.90;;;;;;5034418;28;20029;-86
2021/11/19 10:50:17;;;;;;;17.20;13.77;;;13.80;99.90;;;;;;5035585;28;20049;-86
2021/11/19 10:53:08;;;;;;;17.92;12.93;;;13.80;99.90;;;;;;5041310;28;20400;-86
2021/11/19 10:56:20;;;;;;;21.50;13.73;;;13.90;99.90;;;;;;5033154;28;20037;-86
2021/11/19 10:59:26;;;;;;;17.58;13.27;;;14.30;99.90;;;;;;5039574;28;20021;-85
2021/11/19 11:02:07;;;;;;;18.33;13.07;;;14.40;99.90;;;;;;5020730;28;20486;-85
2021/11/19 11:04:59;;;;;;;20.65;13.95;;;14.40;99.90;;;;;;5050172;28;20045;-85
2021/11/19 11:07:36;;;;;;;14.88;11.05;;;14.40;99.90;;;;;;5037241;28;20399;-86
2021/11/19 11:10:16;;;;;;;15.45;11.88;;;14.30;99.90;;;;;;5050467;28;20072;-86
2021/11/19 11:12:52;;;;;;;15.65;11.73;;;14.40;99.90;;;;;;5042995;28;20068;-84
2021/11/19 11:15:33;;;;;;;16.35;10.70;;;14.50;99.90;;;;;;5042701;28;20366;-86
2021/11/19 11:18:15;;;;;;;14.95;11.20;;;14.50;99.90;;;;;;5037793;28;20255;-85
2021/11/19 11:21:16;;;;;;;15.20;11.35;;;14.30;99.90;;;;;;5040055;28;20503;-86
2021/11/19 11:23:57;;;;;;;17.70;10.57;;;14.20;99.90;;;;;;5030910;28;20029;-85
2021/11/19 11:26:44;;;;;;;15.88;10.55;;;14.00;99.90;;;;;;5025867;28;20030;-86
2021/11/19 11:29:39;;;;;;;17.20;11.45;;;13.90;99.90;;;;;;5040182;28;20503;-85
2021/11/19 11:32:33;;;;;;;16.98;10.88;;;13.70;99.90;;;;;;5021641;28;20014;-86
2021/11/19 11:35:25;;;;;;;18.67;10.57;;;13.60;99.90;;;;;;5040969;28;20037;-84
2021/11/19 11:38:24;;;;;;;16.60;11.13;;;13.50;99.90;;;;;;5034361;28;20559;-85
2021/11/19 11:41:09;;;;;;;13.60;12.13;;;13.50;99.90;;;;;;5055934;28;20041;-86
2021/11/19 11:44:07;;;;;;;13.05;11.63;;;13.50;99.90;;;;;;5031082;28;20824;-84
2021/11/19 11:46:53;;;;;;;15.50;11.43;;;13.40;99.90;;;;;;5039161;28;20439;-86
2021/11/19 11:49:54;;;;;;;16.50;12.65;;;13.50;99.90;;;;;;5035100;28;20036;-86
2021/11/19 11:52:31;;;;;;;13.68;11.93;;;13.50;99.90;;;;;;5038920;28;20392;-85
2021/11/19 11:55:26;;;;;;;20.98;11.63;;;13.60;99.90;;;;;;5055478;28;20084;-86
2021/11/19 11:58:13;;;;;;;13.63;10.95;;;13.90;99.90;;;;;;5046686;28;20424;-85
2021/11/19 12:01:07;;;;;;;12.73;10.57;;;14.10;99.90;;;;;;5038947;28;20136;-86
2021/11/19 12:03:51;;;;;;;13.82;9.70;;;14.20;99.90;;;;;;5032358;28;20029;-87
2021/11/19 12:06:36;;;;;;;12.75;9.35;;;14.40;99.90;;;;;;5036176;28;20029;-86
2021/11/19 12:09:30;;;;;;;11.25;9.23;;;14.70;99.90;;;;;;5044161;28;20473;-87
2021/11/19 12:12:35;;;;;;;13.73;9.18;;;14.70;99.90;;;;;;5029297;28;20037;-87
2021/11/19 12:15:08;;;;;;;11.00;7.85;;;14.60;99.90;;;;;;5041385;28;20041;-86
2021/11/19 12:17:37;;;;;;;;;;;14.60;99.90;;;;;;5035291;28;20084;-85
2021/11/19 12:20:11;;;;;;;13.07;7.22;;;14.50;99.90;;;;;;5032460;28;20004;-87
2021/11/19 12:23:17;;;;;;;10.23;8.48;;;14.50;99.90;;;;;;5039829;28;20748;-87
2021/11/19 12:26:07;;;;;;;8.38;7.43;;;14.30;99.90;;;;;;5021172;28;20045;-87
2021/11/19 12:28:40;;;;;;;9.65;7.85;;;14.10;99.90;;;;;;5031543;28;20021;-87
2021/11/19 12:31:14;;;;;;;11.20;7.47;;;14.00;99.90;;;;;;5032215;28;20030;-87
2021/11/19 12:33:47;;;;;;;12.10;7.47;;;13.80;99.90;;;;;;5047587;28;20041;-86
2021/11/19 12:36:19;;;;;;;12.98;7.30;;;13.70;99.90;;;;;;5036822;28;20315;-86
2021/11/19 12:38:51;;;;;;;11.15;7.57;;;13.60;99.90;;;;;;5056330;28;20145;-86
2021/11/19 12:41:58;;;;;;;9.60;7.00;;;13.60;99.90;;;;;;5042585;28;20020;-87
2021/11/19 12:44:49;;;;;;;11.20;7.28;;;13.60;99.90;;;;;;5029319;28;20041;-87
2021/11/19 12:47:49;;;;;;;12.15;7.50;;;13.60;99.90;;;;;;5050798;28;20033;-85
2021/11/19 12:50:37;;;;;;;9.25;6.63;;;13.60;99.90;;;;;;5011513;28;20073;-87
2021/11/19 12:53:41;;;;;;;10.35;8.02;;;13.60;99.90;;;;;;5033063;28;20029;-86
2021/11/19 12:56:14;;;;;;;8.80;6.25;;;13.50;99.90;;;;;;5034591;28;20036;-86
2021/11/19 12:59:06;;;;;;;12.77;7.50;;;13.50;99.90;;;;;;5040237;28;20060;-87
2021/11/19 13:01:50;;;;;;;8.18;6.90;;;13.50;99.90;;;;;;5048563;28;20077;-88
2021/11/19 13:04:26;;;;;;;10.70;6.38;;;13.50;99.90;;;;;;5032185;28;20081;-88